sensor_id;sensor_type;location;lat;lon;timestamp;temperature;humidity
45785;DHT22;31489;51.404;5.474;2023-06-10T00:02:11;27.90;45.80
45785;DHT22;31489;51.404;5.474;2023-06-10T00:04:37;27.80;45.70
45785;DHT22;31489;51.404;5.474;2023-06-10T00:07:06;27.80;45.70
45785;DHT22;31489;51.404;5.474;2023-06-10T00:09:36;27.70;46.20
45785;DHT22;31489;51.404;5.474;2023-06-10T00:12:05;27.70;46.20
45785;DHT22;31489;51.404;5.474;2023-06-10T00:14:39;27.60;46.40
45785;DHT22;31489;51.404;5.474;2023-06-10T00:17:06;27.60;46.20
45785;DHT22;31489;51.404;5.474;2023-06-10T00:19:34;27.60;46.10
45785;DHT22;31489;51.404;5.474;2023-06-10T00:22:00;27.50;46.00
45785;DHT22;31489;51.404;5.474;2023-06-10T00:24:26;27.50;46.20
45785;DHT22;31489;51.404;5.474;2023-06-10T00:26:52;27.50;46.50
45785;DHT22;31489;51.404;5.474;2023-06-10T00:29:19;27.40;46.30
45785;DHT22;31489;51.404;5.474;2023-06-10T00:31:45;27.40;46.50
45785;DHT22;31489;51.404;5.474;2023-06-10T00:34:12;27.40;46.40
45785;DHT22;31489;51.404;5.474;2023-06-10T00:36:38;27.30;46.60
45785;DHT22;31489;51.404;5.474;2023-06-10T00:39:03;27.30;46.50
45785;DHT22;31489;51.404;5.474;2023-06-10T00:41:30;27.30;46.60
45785;DHT22;31489;51.404;5.474;2023-06-10T00:43:56;27.20;46.60
45785;DHT22;31489;51.404;5.474;2023-06-10T00:46:23;27.20;46.70
45785;DHT22;31489;51.404;5.474;2023-06-10T00:48:51;27.10;46.90
45785;DHT22;31489;51.404;5.474;2023-06-10T00:51:18;27.10;47.00
45785;DHT22;31489;51.404;5.474;2023-06-10T00:53:45;27.10;46.80
45785;DHT22;31489;51.404;5.474;2023-06-10T00:56:11;27.00;47.50
45785;DHT22;31489;51.404;5.474;2023-06-10T00:58:38;27.00;46.90
45785;DHT22;31489;51.404;5.474;2023-06-10T01:01:03;27.00;47.00
45785;DHT22;31489;51.404;5.474;2023-06-10T01:03:30;27.00;47.20
45785;DHT22;31489;51.404;5.474;2023-06-10T01:06:17;27.00;46.90
45785;DHT22;31489;51.404;5.474;2023-06-10T01:08:55;27.00;47.40
45785;DHT22;31489;51.404;5.474;2023-06-10T01:11:28;26.90;47.10
45785;DHT22;31489;51.404;5.474;2023-06-10T01:13:55;26.90;47.20
45785;DHT22;31489;51.404;5.474;2023-06-10T01:16:22;26.80;47.10
45785;DHT22;31489;51.404;5.474;2023-06-10T01:18:48;26.80;47.10
45785;DHT22;31489;51.404;5.474;2023-06-10T01:21:21;26.80;47.10
45785;DHT22;31489;51.404;5.474;2023-06-10T01:23:51;26.80;47.30
45785;DHT22;31489;51.404;5.474;2023-06-10T01:26:18;26.70;47.00
45785;DHT22;31489;51.404;5.474;2023-06-10T01:34:03;26.60;47.00
45785;DHT22;31489;51.404;5.474;2023-06-10T01:36:33;26.60;46.80
45785;DHT22;31489;51.404;5.474;2023-06-10T01:39:00;26.50;46.80
45785;DHT22;31489;51.404;5.474;2023-06-10T01:41:27;26.50;47.00
45785;DHT22;31489;51.404;5.474;2023-06-10T01:43:54;26.40;47.10
45785;DHT22;31489;51.404;5.474;2023-06-10T01:46:20;26.40;47.00
45785;DHT22;31489;51.404;5.474;2023-06-10T01:48:47;26.30;47.00
45785;DHT22;31489;51.404;5.474;2023-06-10T01:51:12;26.30;47.20
45785;DHT22;31489;51.404;5.474;2023-06-10T01:53:38;26.20;47.10
45785;DHT22;31489;51.404;5.474;2023-06-10T01:56:04;26.20;47.20
45785;DHT22;31489;51.404;5.474;2023-06-10T01:58:30;26.20;47.20
45785;DHT22;31489;51.404;5.474;2023-06-10T02:00:56;26.10;47.50
45785;DHT22;31489;51.404;5.474;2023-06-10T02:03:21;26.00;47.30
45785;DHT22;31489;51.404;5.474;2023-06-10T02:05:47;26.00;47.60
45785;DHT22;31489;51.404;5.474;2023-06-10T02:08:13;26.00;47.60
45785;DHT22;31489;51.404;5.474;2023-06-10T02:10:39;25.90;47.60
45785;DHT22;31489;51.404;5.474;2023-06-10T02:13:06;25.80;47.40
45785;DHT22;31489;51.404;5.474;2023-06-10T02:15:32;25.80;47.60
45785;DHT22;31489;51.404;5.474;2023-06-10T02:18:00;25.80;47.80
45785;DHT22;31489;51.404;5.474;2023-06-10T02:20:26;25.70;47.90
45785;DHT22;31489;51.404;5.474;2023-06-10T02:22:52;25.60;47.60
45785;DHT22;31489;51.404;5.474;2023-06-10T02:25:18;25.60;47.70
45785;DHT22;31489;51.404;5.474;2023-06-10T02:27:43;25.60;47.80
45785;DHT22;31489;51.404;5.474;2023-06-10T02:30:09;25.50;47.90
45785;DHT22;31489;51.404;5.474;2023-06-10T02:32:36;25.50;48.00
45785;DHT22;31489;51.404;5.474;2023-06-10T02:35:02;25.50;48.00
45785;DHT22;31489;51.404;5.474;2023-06-10T02:37:27;25.40;47.90
45785;DHT22;31489;51.404;5.474;2023-06-10T02:39:53;25.40;47.90
45785;DHT22;31489;51.404;5.474;2023-06-10T02:42:19;25.40;48.00
45785;DHT22;31489;51.404;5.474;2023-06-10T02:44:45;25.40;48.10
45785;DHT22;31489;51.404;5.474;2023-06-10T02:47:11;25.30;48.00
45785;DHT22;31489;51.404;5.474;2023-06-10T02:49:36;25.20;48.10
45785;DHT22;31489;51.404;5.474;2023-06-10T02:52:02;25.20;48.20
45785;DHT22;31489;51.404;5.474;2023-06-10T02:54:28;25.20;48.20
45785;DHT22;31489;51.404;5.474;2023-06-10T02:56:54;25.20;48.30
45785;DHT22;31489;51.404;5.474;2023-06-10T02:59:21;25.10;48.20
45785;DHT22;31489;51.404;5.474;2023-06-10T03:01:47;25.10;48.40
45785;DHT22;31489;51.404;5.474;2023-06-10T03:04:13;25.10;48.40
45785;DHT22;31489;51.404;5.474;2023-06-10T03:06:40;25.00;48.40
45785;DHT22;31489;51.404;5.474;2023-06-10T03:09:06;25.00;48.50
45785;DHT22;31489;51.404;5.474;2023-06-10T03:11:35;24.90;48.60
45785;DHT22;31489;51.404;5.474;2023-06-10T03:14:01;24.90;48.60
45785;DHT22;31489;51.404;5.474;2023-06-10T03:16:27;24.90;48.80
45785;DHT22;31489;51.404;5.474;2023-06-10T03:18:53;24.80;48.90
45785;DHT22;31489;51.404;5.474;2023-06-10T03:21:19;24.80;49.00
45785;DHT22;31489;51.404;5.474;2023-06-10T03:23:45;24.80;48.90
45785;DHT22;31489;51.404;5.474;2023-06-10T03:26:11;24.70;49.70
45785;DHT22;31489;51.404;5.474;2023-06-10T03:28:40;24.70;48.80
45785;DHT22;31489;51.404;5.474;2023-06-10T03:31:05;24.70;49.20
45785;DHT22;31489;51.404;5.474;2023-06-10T03:33:34;24.60;49.30
45785;DHT22;31489;51.404;5.474;2023-06-10T03:35:59;24.60;49.50
45785;DHT22;31489;51.404;5.474;2023-06-10T03:38:25;24.60;49.60
45785;DHT22;31489;51.404;5.474;2023-06-10T03:40:51;24.50;49.60
45785;DHT22;31489;51.404;5.474;2023-06-10T03:43:17;24.50;49.60
45785;DHT22;31489;51.404;5.474;2023-06-10T03:45:42;24.50;49.70
45785;DHT22;31489;51.404;5.474;2023-06-10T03:48:08;24.40;49.90
45785;DHT22;31489;51.404;5.474;2023-06-10T03:50:35;24.40;50.00
45785;DHT22;31489;51.404;5.474;2023-06-10T03:53:01;24.40;50.20
45785;DHT22;31489;51.404;5.474;2023-06-10T03:55:27;24.40;50.30
45785;DHT22;31489;51.404;5.474;2023-06-10T03:57:53;24.40;50.30
45785;DHT22;31489;51.404;5.474;2023-06-10T04:00:19;24.30;50.50
45785;DHT22;31489;51.404;5.474;2023-06-10T04:02:46;24.30;50.50
45785;DHT22;31489;51.404;5.474;2023-06-10T04:05:15;24.30;50.60
45785;DHT22;31489;51.404;5.474;2023-06-10T04:07:42;24.20;50.70
45785;DHT22;31489;51.404;5.474;2023-06-10T04:10:10;24.20;50.80
45785;DHT22;31489;51.404;5.474;2023-06-10T04:12:36;24.20;50.90
45785;DHT22;31489;51.404;5.474;2023-06-10T04:15:04;24.20;50.90
45785;DHT22;31489;51.404;5.474;2023-06-10T04:17:32;24.20;51.30
45785;DHT22;31489;51.404;5.474;2023-06-10T04:19:58;24.10;51.30
45785;DHT22;31489;51.404;5.474;2023-06-10T04:22:30;24.10;51.40
45785;DHT22;31489;51.404;5.474;2023-06-10T04:24:57;24.10;51.70
45785;DHT22;31489;51.404;5.474;2023-06-10T04:27:24;24.10;51.60
45785;DHT22;31489;51.404;5.474;2023-06-10T04:29:50;24.10;51.70
45785;DHT22;31489;51.404;5.474;2023-06-10T04:32:15;24.00;51.80
45785;DHT22;31489;51.404;5.474;2023-06-10T04:34:41;24.00;51.80
45785;DHT22;31489;51.404;5.474;2023-06-10T04:37:07;24.00;52.00
45785;DHT22;31489;51.404;5.474;2023-06-10T04:39:33;24.00;52.30
45785;DHT22;31489;51.404;5.474;2023-06-10T04:41:59;24.00;52.30
45785;DHT22;31489;51.404;5.474;2023-06-10T04:44:25;24.00;52.20
45785;DHT22;31489;51.404;5.474;2023-06-10T04:46:51;24.00;52.50
45785;DHT22;31489;51.404;5.474;2023-06-10T04:49:17;24.00;52.50
45785;DHT22;31489;51.404;5.474;2023-06-10T04:51:42;24.00;52.70
45785;DHT22;31489;51.404;5.474;2023-06-10T04:54:08;24.00;53.00
45785;DHT22;31489;51.404;5.474;2023-06-10T04:56:34;24.00;52.90
45785;DHT22;31489;51.404;5.474;2023-06-10T04:59:00;24.00;52.90
45785;DHT22;31489;51.404;5.474;2023-06-10T05:01:26;24.00;53.10
45785;DHT22;31489;51.404;5.474;2023-06-10T05:03:53;24.00;53.30
45785;DHT22;31489;51.404;5.474;2023-06-10T05:06:19;24.00;53.20
45785;DHT22;31489;51.404;5.474;2023-06-10T05:08:44;24.00;53.40
45785;DHT22;31489;51.404;5.474;2023-06-10T05:11:13;24.00;53.60
45785;DHT22;31489;51.404;5.474;2023-06-10T05:13:39;24.10;52.90
45785;DHT22;31489;51.404;5.474;2023-06-10T05:16:05;24.10;53.50
45785;DHT22;31489;51.404;5.474;2023-06-10T05:18:32;24.10;53.80
45785;DHT22;31489;51.404;5.474;2023-06-10T05:21:04;24.10;53.80
45785;DHT22;31489;51.404;5.474;2023-06-10T05:23:30;24.10;54.30
45785;DHT22;31489;51.404;5.474;2023-06-10T05:25:56;24.20;54.00
45785;DHT22;31489;51.404;5.474;2023-06-10T05:28:22;24.20;53.90
45785;DHT22;31489;51.404;5.474;2023-06-10T05:30:47;24.20;54.20
45785;DHT22;31489;51.404;5.474;2023-06-10T05:33:13;24.20;54.40
45785;DHT22;31489;51.404;5.474;2023-06-10T05:35:39;24.20;54.50
45785;DHT22;31489;51.404;5.474;2023-06-10T05:38:07;24.20;54.70
45785;DHT22;31489;51.404;5.474;2023-06-10T05:40:33;24.20;54.40
45785;DHT22;31489;51.404;5.474;2023-06-10T05:42:59;24.20;54.40
45785;DHT22;31489;51.404;5.474;2023-06-10T05:45:24;24.30;54.60
45785;DHT22;31489;51.404;5.474;2023-06-10T05:47:50;24.30;54.40
45785;DHT22;31489;51.404;5.474;2023-06-10T05:50:17;24.30;54.80
45785;DHT22;31489;51.404;5.474;2023-06-10T05:52:43;24.40;54.60
45785;DHT22;31489;51.404;5.474;2023-06-10T05:55:11;24.40;54.60
45785;DHT22;31489;51.404;5.474;2023-06-10T05:57:37;24.40;54.60
45785;DHT22;31489;51.404;5.474;2023-06-10T06:00:03;24.50;54.20
45785;DHT22;31489;51.404;5.474;2023-06-10T06:02:29;24.50;54.80
45785;DHT22;31489;51.404;5.474;2023-06-10T06:04:55;24.50;54.40
45785;DHT22;31489;51.404;5.474;2023-06-10T06:07:21;24.50;54.40
45785;DHT22;31489;51.404;5.474;2023-06-10T06:09:47;24.60;54.10
45785;DHT22;31489;51.404;5.474;2023-06-10T06:12:13;24.70;53.80
45785;DHT22;31489;51.404;5.474;2023-06-10T06:14:38;24.70;54.20
45785;DHT22;31489;51.404;5.474;2023-06-10T06:17:08;24.70;53.50
45785;DHT22;31489;51.404;5.474;2023-06-10T06:19:34;24.70;53.80
45785;DHT22;31489;51.404;5.474;2023-06-10T06:22:01;24.80;54.00
45785;DHT22;31489;51.404;5.474;2023-06-10T06:24:28;24.80;54.50
45785;DHT22;31489;51.404;5.474;2023-06-10T06:26:53;24.80;53.40
45785;DHT22;31489;51.404;5.474;2023-06-10T06:29:22;24.90;53.60
45785;DHT22;31489;51.404;5.474;2023-06-10T06:31:48;25.00;53.30
45785;DHT22;31489;51.404;5.474;2023-06-10T06:34:13;25.00;53.30
45785;DHT22;31489;51.404;5.474;2023-06-10T06:36:39;25.00;53.00
45785;DHT22;31489;51.404;5.474;2023-06-10T06:39:07;25.00;52.80
45785;DHT22;31489;51.404;5.474;2023-06-10T06:41:33;25.10;52.70
45785;DHT22;31489;51.404;5.474;2023-06-10T06:44:01;25.20;53.40
45785;DHT22;31489;51.404;5.474;2023-06-10T06:46:28;25.20;52.80
45785;DHT22;31489;51.404;5.474;2023-06-10T06:48:54;25.30;52.70
45785;DHT22;31489;51.404;5.474;2023-06-10T06:51:24;25.40;53.20
45785;DHT22;31489;51.404;5.474;2023-06-10T06:53:51;25.40;51.90
45785;DHT22;31489;51.404;5.474;2023-06-10T06:56:20;25.40;52.20
45785;DHT22;31489;51.404;5.474;2023-06-10T06:58:46;25.50;52.10
45785;DHT22;31489;51.404;5.474;2023-06-10T07:01:12;25.50;51.80
45785;DHT22;31489;51.404;5.474;2023-06-10T07:03:38;25.60;51.80
45785;DHT22;31489;51.404;5.474;2023-06-10T07:06:04;25.60;52.20
45785;DHT22;31489;51.404;5.474;2023-06-10T07:08:39;25.60;52.00
45785;DHT22;31489;51.404;5.474;2023-06-10T07:11:07;25.70;51.40
45785;DHT22;31489;51.404;5.474;2023-06-10T07:13:33;25.70;51.20
45785;DHT22;31489;51.404;5.474;2023-06-10T07:16:00;25.80;51.20
45785;DHT22;31489;51.404;5.474;2023-06-10T07:18:25;25.90;51.00
45785;DHT22;31489;51.404;5.474;2023-06-10T07:20:51;25.90;51.60
45785;DHT22;31489;51.404;5.474;2023-06-10T07:23:17;25.90;51.10
45785;DHT22;31489;51.404;5.474;2023-06-10T07:25:42;26.00;51.40
45785;DHT22;31489;51.404;5.474;2023-06-10T07:28:08;26.00;51.50
45785;DHT22;31489;51.404;5.474;2023-06-10T07:30:34;26.10;51.10
45785;DHT22;31489;51.404;5.474;2023-06-10T07:33:00;26.10;51.60
45785;DHT22;31489;51.404;5.474;2023-06-10T07:35:27;26.20;51.10
45785;DHT22;31489;51.404;5.474;2023-06-10T07:37:53;26.20;51.30
45785;DHT22;31489;51.404;5.474;2023-06-10T07:40:18;26.30;50.60
45785;DHT22;31489;51.404;5.474;2023-06-10T07:42:44;26.40;50.10
45785;DHT22;31489;51.404;5.474;2023-06-10T07:45:10;26.40;50.70
45785;DHT22;31489;51.404;5.474;2023-06-10T07:47:36;26.50;49.90
45785;DHT22;31489;51.404;5.474;2023-06-10T07:50:01;26.50;49.80
45785;DHT22;31489;51.404;5.474;2023-06-10T07:52:27;26.60;50.10
45785;DHT22;31489;51.404;5.474;2023-06-10T07:54:54;26.60;49.80
45785;DHT22;31489;51.404;5.474;2023-06-10T07:57:19;26.70;49.20
45785;DHT22;31489;51.404;5.474;2023-06-10T07:59:48;26.80;49.50
45785;DHT22;31489;51.404;5.474;2023-06-10T08:02:14;26.80;49.50
45785;DHT22;31489;51.404;5.474;2023-06-10T08:04:40;26.90;49.10
45785;DHT22;31489;51.404;5.474;2023-06-10T08:07:05;26.90;49.10
45785;DHT22;31489;51.404;5.474;2023-06-10T08:09:31;27.00;48.80
45785;DHT22;31489;51.404;5.474;2023-06-10T08:11:57;27.00;48.20
45785;DHT22;31489;51.404;5.474;2023-06-10T08:14:22;27.10;48.90
45785;DHT22;31489;51.404;5.474;2023-06-10T08:16:48;27.20;49.00
45785;DHT22;31489;51.404;5.474;2023-06-10T08:19:14;27.20;48.10
45785;DHT22;31489;51.404;5.474;2023-06-10T08:21:40;27.30;48.10
45785;DHT22;31489;51.404;5.474;2023-06-10T08:24:06;27.30;47.50
45785;DHT22;31489;51.404;5.474;2023-06-10T08:26:32;27.40;47.50
45785;DHT22;31489;51.404;5.474;2023-06-10T08:28:58;27.40;47.70
45785;DHT22;31489;51.404;5.474;2023-06-10T08:31:23;27.50;47.50
45785;DHT22;31489;51.404;5.474;2023-06-10T08:33:49;27.60;47.10
45785;DHT22;31489;51.404;5.474;2023-06-10T08:36:15;27.60;47.00
45785;DHT22;31489;51.404;5.474;2023-06-10T08:38:41;27.70;47.40
45785;DHT22;31489;51.404;5.474;2023-06-10T08:41:06;27.70;46.70
45785;DHT22;31489;51.404;5.474;2023-06-10T08:44:02;27.80;47.00
45785;DHT22;31489;51.404;5.474;2023-06-10T08:46:31;27.90;46.30
45785;DHT22;31489;51.404;5.474;2023-06-10T08:49:01;28.00;46.10
45785;DHT22;31489;51.404;5.474;2023-06-10T08:51:29;28.00;46.90
45785;DHT22;31489;51.404;5.474;2023-06-10T08:54:17;28.10;46.20
45785;DHT22;31489;51.404;5.474;2023-06-10T08:56:50;28.10;45.60
45785;DHT22;31489;51.404;5.474;2023-06-10T08:59:17;28.20;46.50
45785;DHT22;31489;51.404;5.474;2023-06-10T09:01:44;28.30;45.90
45785;DHT22;31489;51.404;5.474;2023-06-10T09:04:11;28.40;46.40
45785;DHT22;31489;51.404;5.474;2023-06-10T09:06:37;28.40;47.30
45785;DHT22;31489;51.404;5.474;2023-06-10T09:09:06;28.50;46.10
45785;DHT22;31489;51.404;5.474;2023-06-10T09:11:32;28.60;46.90
45785;DHT22;31489;51.404;5.474;2023-06-10T09:13:58;28.70;46.20
45785;DHT22;31489;51.404;5.474;2023-06-10T09:16:25;28.70;45.80
45785;DHT22;31489;51.404;5.474;2023-06-10T09:18:51;28.80;45.40
45785;DHT22;31489;51.404;5.474;2023-06-10T09:21:23;28.90;45.70
45785;DHT22;31489;51.404;5.474;2023-06-10T09:23:50;28.90;45.20
45785;DHT22;31489;51.404;5.474;2023-06-10T09:26:16;29.00;45.30
45785;DHT22;31489;51.404;5.474;2023-06-10T09:28:49;29.00;45.20
45785;DHT22;31489;51.404;5.474;2023-06-10T09:31:17;29.10;45.00
45785;DHT22;31489;51.404;5.474;2023-06-10T09:33:47;29.10;44.20
45785;DHT22;31489;51.404;5.474;2023-06-10T09:36:22;29.20;44.80
45785;DHT22;31489;51.404;5.474;2023-06-10T09:38:50;29.30;44.00
45785;DHT22;31489;51.404;5.474;2023-06-10T09:41:18;29.30;43.60
45785;DHT22;31489;51.404;5.474;2023-06-10T09:43:45;29.40;43.70
45785;DHT22;31489;51.404;5.474;2023-06-10T09:46:15;29.50;43.90
45785;DHT22;31489;51.404;5.474;2023-06-10T09:48:43;29.50;43.30
45785;DHT22;31489;51.404;5.474;2023-06-10T09:51:10;29.60;44.40
45785;DHT22;31489;51.404;5.474;2023-06-10T09:53:36;29.70;44.50
45785;DHT22;31489;51.404;5.474;2023-06-10T09:56:02;29.80;43.90
45785;DHT22;31489;51.404;5.474;2023-06-10T09:58:40;29.80;43.80
45785;DHT22;31489;51.404;5.474;2023-06-10T10:01:10;29.90;43.60
45785;DHT22;31489;51.404;5.474;2023-06-10T10:03:46;30.00;43.70
45785;DHT22;31489;51.404;5.474;2023-06-10T10:06:15;30.10;43.60
45785;DHT22;31489;51.404;5.474;2023-06-10T10:08:41;30.20;43.10
45785;DHT22;31489;51.404;5.474;2023-06-10T10:11:07;30.30;43.40
45785;DHT22;31489;51.404;5.474;2023-06-10T10:13:34;30.30;43.50
45785;DHT22;31489;51.404;5.474;2023-06-10T10:16:06;30.40;43.10
45785;DHT22;31489;51.404;5.474;2023-06-10T10:18:39;30.50;43.10
45785;DHT22;31489;51.404;5.474;2023-06-10T10:21:21;30.60;42.40
45785;DHT22;31489;51.404;5.474;2023-06-10T10:24:03;30.70;42.50
45785;DHT22;31489;51.404;5.474;2023-06-10T10:26:33;30.80;41.90
45785;DHT22;31489;51.404;5.474;2023-06-10T10:31:38;31.00;42.80
45785;DHT22;31489;51.404;5.474;2023-06-10T10:34:09;31.10;42.10
45785;DHT22;31489;51.404;5.474;2023-06-10T10:36:36;31.20;43.10
45785;DHT22;31489;51.404;5.474;2023-06-10T10:39:04;31.30;42.60
45785;DHT22;31489;51.404;5.474;2023-06-10T10:41:31;31.40;42.30
45785;DHT22;31489;51.404;5.474;2023-06-10T10:43:58;31.50;41.70
45785;DHT22;31489;51.404;5.474;2023-06-10T10:46:25;31.60;41.70
45785;DHT22;31489;51.404;5.474;2023-06-10T10:48:54;31.60;41.30
45785;DHT22;31489;51.404;5.474;2023-06-10T10:51:23;31.80;40.00
45785;DHT22;31489;51.404;5.474;2023-06-10T10:54:12;31.90;40.10
45785;DHT22;31489;51.404;5.474;2023-06-10T10:56:38;32.30;41.30
45785;DHT22;31489;51.404;5.474;2023-06-10T10:59:05;32.50;41.70
45785;DHT22;31489;51.404;5.474;2023-06-10T11:01:43;32.90;41.10
45785;DHT22;31489;51.404;5.474;2023-06-10T11:04:12;33.30;40.20
45785;DHT22;31489;51.404;5.474;2023-06-10T11:06:37;33.70;40.70
45785;DHT22;31489;51.404;5.474;2023-06-10T11:09:28;34.10;40.70
45785;DHT22;31489;51.404;5.474;2023-06-10T11:11:58;34.50;40.20
45785;DHT22;31489;51.404;5.474;2023-06-10T11:14:28;34.80;39.20
45785;DHT22;31489;51.404;5.474;2023-06-10T11:16:57;35.20;39.50
45785;DHT22;31489;51.404;5.474;2023-06-10T11:19:36;35.50;38.20
45785;DHT22;31489;51.404;5.474;2023-06-10T11:22:06;35.80;37.60
45785;DHT22;31489;51.404;5.474;2023-06-10T11:24:33;36.00;37.90
45785;DHT22;31489;51.404;5.474;2023-06-10T11:27:37;36.20;37.50
45785;DHT22;31489;51.404;5.474;2023-06-10T11:32:31;36.60;38.60
45785;DHT22;31489;51.404;5.474;2023-06-10T11:35:00;36.70;36.30
45785;DHT22;31489;51.404;5.474;2023-06-10T11:37:28;36.70;35.00
45785;DHT22;31489;51.404;5.474;2023-06-10T11:39:56;36.80;35.30
45785;DHT22;31489;51.404;5.474;2023-06-10T11:42:23;36.90;34.50
45785;DHT22;31489;51.404;5.474;2023-06-10T11:44:52;36.90;34.30
45785;DHT22;31489;51.404;5.474;2023-06-10T11:47:19;36.90;32.80
45785;DHT22;31489;51.404;5.474;2023-06-10T11:49:46;36.90;34.10
45785;DHT22;31489;51.404;5.474;2023-06-10T11:52:30;36.90;33.60
45785;DHT22;31489;51.404;5.474;2023-06-10T11:54:57;36.90;33.70
45785;DHT22;31489;51.404;5.474;2023-06-10T11:57:23;36.90;33.90
45785;DHT22;31489;51.404;5.474;2023-06-10T11:59:49;36.90;33.80
45785;DHT22;31489;51.404;5.474;2023-06-10T12:02:16;36.90;33.60
45785;DHT22;31489;51.404;5.474;2023-06-10T12:04:42;36.90;33.10
45785;DHT22;31489;51.404;5.474;2023-06-10T12:07:07;36.90;32.50
45785;DHT22;31489;51.404;5.474;2023-06-10T12:09:33;36.90;32.80
45785;DHT22;31489;51.404;5.474;2023-06-10T12:12:04;37.00;33.20
45785;DHT22;31489;51.404;5.474;2023-06-10T12:14:53;37.00;32.90
45785;DHT22;31489;51.404;5.474;2023-06-10T12:20:00;37.10;32.10
45785;DHT22;31489;51.404;5.474;2023-06-10T12:22:36;37.20;32.10
45785;DHT22;31489;51.404;5.474;2023-06-10T12:25:03;37.20;31.00
45785;DHT22;31489;51.404;5.474;2023-06-10T12:27:30;37.30;32.40
45785;DHT22;31489;51.404;5.474;2023-06-10T12:29:57;37.30;32.00
45785;DHT22;31489;51.404;5.474;2023-06-10T12:35:05;37.40;31.70
45785;DHT22;31489;51.404;5.474;2023-06-10T12:37:31;37.40;30.90
45785;DHT22;31489;51.404;5.474;2023-06-10T12:40:01;37.40;31.70
45785;DHT22;31489;51.404;5.474;2023-06-10T12:42:31;37.50;31.60
45785;DHT22;31489;51.404;5.474;2023-06-10T12:44:59;37.50;31.40
45785;DHT22;31489;51.404;5.474;2023-06-10T12:47:30;37.60;31.60
45785;DHT22;31489;51.404;5.474;2023-06-10T12:50:14;37.60;30.80
45785;DHT22;31489;51.404;5.474;2023-06-10T12:52:40;37.70;30.00
45785;DHT22;31489;51.404;5.474;2023-06-10T12:55:06;37.80;30.50
45785;DHT22;31489;51.404;5.474;2023-06-10T12:57:32;37.90;30.50
45785;DHT22;31489;51.404;5.474;2023-06-10T12:59:58;37.90;30.70
45785;DHT22;31489;51.404;5.474;2023-06-10T13:02:29;38.00;30.70
45785;DHT22;31489;51.404;5.474;2023-06-10T13:04:54;38.00;30.00
45785;DHT22;31489;51.404;5.474;2023-06-10T13:07:21;38.10;29.70
45785;DHT22;31489;51.404;5.474;2023-06-10T13:09:48;38.10;30.00
45785;DHT22;31489;51.404;5.474;2023-06-10T13:12:17;38.10;30.00
45785;DHT22;31489;51.404;5.474;2023-06-10T13:14:43;38.20;29.90
45785;DHT22;31489;51.404;5.474;2023-06-10T13:17:17;38.30;29.90
45785;DHT22;31489;51.404;5.474;2023-06-10T13:19:42;38.30;29.50
45785;DHT22;31489;51.404;5.474;2023-06-10T13:22:08;38.30;29.80
45785;DHT22;31489;51.404;5.474;2023-06-10T13:24:39;38.40;30.30
45785;DHT22;31489;51.404;5.474;2023-06-10T13:27:09;38.40;30.10
45785;DHT22;31489;51.404;5.474;2023-06-10T13:29:34;38.40;30.80
45785;DHT22;31489;51.404;5.474;2023-06-10T13:32:00;38.40;30.00
45785;DHT22;31489;51.404;5.474;2023-06-10T13:34:26;38.50;30.40
45785;DHT22;31489;51.404;5.474;2023-06-10T13:36:51;38.50;29.90
45785;DHT22;31489;51.404;5.474;2023-06-10T13:39:17;38.60;29.60
45785;DHT22;31489;51.404;5.474;2023-06-10T13:41:42;38.60;29.40
45785;DHT22;31489;51.404;5.474;2023-06-10T13:44:08;38.60;29.30
45785;DHT22;31489;51.404;5.474;2023-06-10T13:46:34;38.70;29.50
45785;DHT22;31489;51.404;5.474;2023-06-10T13:48:59;38.70;29.80
45785;DHT22;31489;51.404;5.474;2023-06-10T13:51:25;38.70;30.00
45785;DHT22;31489;51.404;5.474;2023-06-10T13:53:51;38.80;29.50
45785;DHT22;31489;51.404;5.474;2023-06-10T13:56:18;38.80;29.10
45785;DHT22;31489;51.404;5.474;2023-06-10T13:58:44;38.90;29.60
45785;DHT22;31489;51.404;5.474;2023-06-10T14:01:10;38.90;29.80
45785;DHT22;31489;51.404;5.474;2023-06-10T14:03:36;38.90;29.60
45785;DHT22;31489;51.404;5.474;2023-06-10T14:06:01;38.90;29.20
45785;DHT22;31489;51.404;5.474;2023-06-10T14:08:27;39.00;29.40
45785;DHT22;31489;51.404;5.474;2023-06-10T14:10:53;39.00;28.80
45785;DHT22;31489;51.404;5.474;2023-06-10T14:13:18;39.00;29.50
45785;DHT22;31489;51.404;5.474;2023-06-10T14:15:44;39.00;29.00
45785;DHT22;31489;51.404;5.474;2023-06-10T14:18:10;39.00;29.40
45785;DHT22;31489;51.404;5.474;2023-06-10T14:20:36;39.00;29.10
45785;DHT22;31489;51.404;5.474;2023-06-10T14:23:02;38.90;29.20
45785;DHT22;31489;51.404;5.474;2023-06-10T14:25:28;38.80;28.70
45785;DHT22;31489;51.404;5.474;2023-06-10T14:27:53;38.70;28.70
45785;DHT22;31489;51.404;5.474;2023-06-10T14:30:19;38.60;28.80
45785;DHT22;31489;51.404;5.474;2023-06-10T14:32:45;38.40;28.90
45785;DHT22;31489;51.404;5.474;2023-06-10T14:35:10;38.20;29.30
45785;DHT22;31489;51.404;5.474;2023-06-10T14:37:36;38.00;29.20
45785;DHT22;31489;51.404;5.474;2023-06-10T14:40:03;37.80;29.20
45785;DHT22;31489;51.404;5.474;2023-06-10T14:42:30;37.70;29.40
45785;DHT22;31489;51.404;5.474;2023-06-10T14:44:57;37.60;29.40
45785;DHT22;31489;51.404;5.474;2023-06-10T14:47:23;37.60;29.90
45785;DHT22;31489;51.404;5.474;2023-06-10T14:49:49;37.50;29.90
45785;DHT22;31489;51.404;5.474;2023-06-10T14:52:14;37.50;30.00
45785;DHT22;31489;51.404;5.474;2023-06-10T14:54:40;37.40;29.50
45785;DHT22;31489;51.404;5.474;2023-06-10T14:57:06;37.40;30.00
45785;DHT22;31489;51.404;5.474;2023-06-10T14:59:32;37.30;30.40
45785;DHT22;31489;51.404;5.474;2023-06-10T15:01:58;37.30;29.90
45785;DHT22;31489;51.404;5.474;2023-06-10T15:04:26;37.30;29.80
45785;DHT22;31489;51.404;5.474;2023-06-10T15:06:52;37.30;30.20
45785;DHT22;31489;51.404;5.474;2023-06-10T15:09:17;37.30;30.40
45785;DHT22;31489;51.404;5.474;2023-06-10T15:11:43;37.30;30.80
45785;DHT22;31489;51.404;5.474;2023-06-10T15:14:09;37.30;30.40
45785;DHT22;31489;51.404;5.474;2023-06-10T15:16:34;37.30;30.50
45785;DHT22;31489;51.404;5.474;2023-06-10T15:19:00;37.30;30.50
45785;DHT22;31489;51.404;5.474;2023-06-10T15:21:26;37.30;30.40
45785;DHT22;31489;51.404;5.474;2023-06-10T15:23:51;37.30;30.30
45785;DHT22;31489;51.404;5.474;2023-06-10T15:26:18;37.30;30.50
45785;DHT22;31489;51.404;5.474;2023-06-10T15:28:44;37.30;30.60
45785;DHT22;31489;51.404;5.474;2023-06-10T15:31:09;37.30;30.60
45785;DHT22;31489;51.404;5.474;2023-06-10T15:33:35;37.30;30.00
45785;DHT22;31489;51.404;5.474;2023-06-10T15:36:01;37.30;30.20
45785;DHT22;31489;51.404;5.474;2023-06-10T15:38:27;37.30;30.10
45785;DHT22;31489;51.404;5.474;2023-06-10T15:40:52;37.30;30.00
45785;DHT22;31489;51.404;5.474;2023-06-10T15:43:19;37.30;30.00
45785;DHT22;31489;51.404;5.474;2023-06-10T15:45:45;37.30;29.80
45785;DHT22;31489;51.404;5.474;2023-06-10T15:48:10;37.30;30.20